createdAt,value
2018-03-14T00:00:26.727Z,7.07
2018-03-14T00:02:55.278Z,5.70
2018-03-14T00:05:22.879Z,6.00
2018-03-14T00:07:51.289Z,6.23
2018-03-14T00:10:18.896Z,5.70
2018-03-14T00:12:46.733Z,6.30
2018-03-14T00:15:14.319Z,6.33
2018-03-14T00:17:42.666Z,7.43
2018-03-14T00:20:10.286Z,7.00
2018-03-14T00:22:39.450Z,6.50
2018-03-14T00:25:07.897Z,7.50
2018-03-14T00:27:35.780Z,7.53
2018-03-14T00:30:03.388Z,7.60
2018-03-14T00:32:31.016Z,6.77
2018-03-14T00:35:00.336Z,7.23
2018-03-14T00:37:28.684Z,6.17
2018-03-14T00:39:56.285Z,8.67
2018-03-14T00:42:23.911Z,7.83
2018-03-14T00:44:51.511Z,7.70
2018-03-14T00:47:19.181Z,8.00
2018-03-14T00:49:46.800Z,8.37
2018-03-14T00:52:14.378Z,7.23
2018-03-14T00:54:42.713Z,7.30
2018-03-14T00:57:10.346Z,8.00
2018-03-14T00:59:38.485Z,8.07
2018-03-14T01:02:06.838Z,7.03
2018-03-14T01:04:35.308Z,8.23
2018-03-14T01:07:03.655Z,7.93
2018-03-14T01:09:31.319Z,9.50
2018-03-14T01:11:59.345Z,8.60
2018-03-14T01:14:27.695Z,9.33
2018-03-14T01:16:55.274Z,9.40
2018-03-14T01:19:23.657Z,9.67
2018-03-14T01:21:52.044Z,9.60
2018-03-14T01:24:20.515Z,10.00
2018-03-14T01:26:48.907Z,9.30
2018-03-14T01:29:16.489Z,8.93
2018-03-14T01:31:44.285Z,8.50
2018-03-14T01:34:11.886Z,6.93
2018-03-14T01:36:40.222Z,5.87
2018-03-14T01:39:08.069Z,5.70
2018-03-14T01:41:35.660Z,4.03
2018-03-14T01:44:03.251Z,4.07
2018-03-14T01:46:30.863Z,3.83
2018-03-14T01:48:58.444Z,3.53
2018-03-14T01:51:26.918Z,4.40
2018-03-14T01:53:54.550Z,5.80
2018-03-14T01:56:22.264Z,5.20
2018-03-14T01:58:50.197Z,6.23
2018-03-14T02:01:19.288Z,6.53
2018-03-14T02:03:46.891Z,6.27
2018-03-14T02:06:14.497Z,6.30
2018-03-14T02:08:42.091Z,6.57
2018-03-14T02:11:10.772Z,5.50
2018-03-14T02:13:39.115Z,6.47
2018-03-14T02:16:06.953Z,5.43
2018-03-14T02:18:34.553Z,4.67
2018-03-14T02:21:02.141Z,4.70
2018-03-14T02:23:30.493Z,4.70
2018-03-14T02:25:58.112Z,4.90
2018-03-14T02:28:25.698Z,4.40
2018-03-14T02:30:53.286Z,4.73
2018-03-14T02:33:20.925Z,4.90
2018-03-14T02:35:48.517Z,5.50
2018-03-14T02:38:16.855Z,5.37
2018-03-14T02:40:44.734Z,5.20
2018-03-14T02:43:12.326Z,5.13
2018-03-14T02:45:40.662Z,5.40
2018-03-14T02:48:08.256Z,5.20
2018-03-14T02:50:35.898Z,5.40
2018-03-14T02:53:03.476Z,5.30
2018-03-14T02:55:31.071Z,5.87
2018-03-14T02:57:58.709Z,5.50
2018-03-14T03:00:27.303Z,6.10
2018-03-14T03:02:55.933Z,6.00
2018-03-14T03:05:23.491Z,5.50
2018-03-14T03:07:51.058Z,5.50
2018-03-14T03:10:18.973Z,5.73
2018-03-14T03:12:47.399Z,6.07
2018-03-14T03:15:14.954Z,5.40
2018-03-14T03:17:42.557Z,5.50
2018-03-14T03:20:10.925Z,6.40
2018-03-14T03:22:38.496Z,5.20
2018-03-14T03:25:06.803Z,5.67
2018-03-14T03:27:34.409Z,5.57
2018-03-14T03:30:01.968Z,5.43
2018-03-14T03:32:29.548Z,5.40
2018-03-14T03:34:57.915Z,5.20
2018-03-14T03:37:26.744Z,5.30
2018-03-14T03:39:54.327Z,5.20
2018-03-14T03:42:21.931Z,5.10
2018-03-14T03:44:50.268Z,4.80
2018-03-14T03:47:17.833Z,4.70
2018-03-14T03:49:45.704Z,5.37
2018-03-14T03:52:13.270Z,4.87
2018-03-14T03:54:40.843Z,4.77
2018-03-14T03:57:08.784Z,5.30
2018-03-14T03:59:36.355Z,5.50
2018-03-14T04:02:03.916Z,5.73
2018-03-14T04:04:32.267Z,4.63
2018-03-14T04:06:59.825Z,4.93
2018-03-14T04:09:27.400Z,5.57
2018-03-14T04:11:54.985Z,4.50
2018-03-14T04:14:23.333Z,4.47
2018-03-14T04:16:50.916Z,5.20
2018-03-14T04:19:18.854Z,5.73
2018-03-14T04:21:46.438Z,5.90
2018-03-14T04:24:14.005Z,6.63
2018-03-14T04:26:41.958Z,5.60
2018-03-14T04:29:09.522Z,6.27
2018-03-14T04:31:37.078Z,5.33
2018-03-14T04:34:04.677Z,6.07
2018-03-14T04:36:32.248Z,6.10
2018-03-14T04:38:59.813Z,6.73
2018-03-14T04:41:27.696Z,6.30
2018-03-14T04:43:55.355Z,5.97
2018-03-14T04:46:22.915Z,6.63
2018-03-14T04:48:50.514Z,6.30
2018-03-14T04:51:18.834Z,7.23
2018-03-14T04:53:46.402Z,6.33
2018-03-14T04:56:14.001Z,7.70
2018-03-14T04:58:41.571Z,8.33
2018-03-14T05:01:10.046Z,8.30
2018-03-14T05:03:38.709Z,8.83
2018-03-14T05:06:06.285Z,9.27
2018-03-14T05:08:33.849Z,9.80
2018-03-14T05:11:02.495Z,9.23
2018-03-14T05:13:30.067Z,8.67
2018-03-14T05:15:57.631Z,9.00
2018-03-14T05:18:25.235Z,9.23
2018-03-14T05:20:52.809Z,10.20
2018-03-14T05:23:20.387Z,12.87
2018-03-14T05:25:48.369Z,11.47
2018-03-14T05:28:16.000Z,12.60
2018-03-14T05:30:43.635Z,13.33
2018-03-14T05:33:11.244Z,13.33
2018-03-14T05:35:38.842Z,14.40
2018-03-14T05:38:07.189Z,15.17
2018-03-14T05:40:35.112Z,15.27
2018-03-14T05:43:03.414Z,16.57
2018-03-14T05:45:30.976Z,17.00
2018-03-14T05:47:58.779Z,18.80
2018-03-14T05:50:27.185Z,18.10
2018-03-14T05:52:54.771Z,18.90
2018-03-14T05:55:22.348Z,19.60
2018-03-14T05:57:49.903Z,19.87
2018-03-14T06:00:17.479Z,20.80
2018-03-14T06:02:45.092Z,20.90
2018-03-14T06:05:12.760Z,23.00
2018-03-14T06:07:40.329Z,18.43
2018-03-14T06:10:07.915Z,18.97
2018-03-14T06:12:35.855Z,17.00
2018-03-14T06:15:03.419Z,17.87
2018-03-14T06:17:31.018Z,17.57
2018-03-14T06:19:59.391Z,18.30
2018-03-14T06:22:27.739Z,20.63
2018-03-14T06:24:55.313Z,20.60
2018-03-14T06:27:23.088Z,19.30
2018-03-14T06:29:50.724Z,18.13
2018-03-14T06:32:18.331Z,19.13
2018-03-14T06:34:46.681Z,18.90
2018-03-14T06:37:14.305Z,20.57
2018-03-14T06:39:42.021Z,21.23
2018-03-14T06:42:10.343Z,19.10
2018-03-14T06:44:38.088Z,18.10
2018-03-14T06:47:05.661Z,17.93
2018-03-14T06:49:33.229Z,17.33
2018-03-14T06:52:00.862Z,18.80
2018-03-14T06:54:28.423Z,18.07
2018-03-14T06:56:56.065Z,18.53
2018-03-14T06:59:36.377Z,18.77
2018-03-14T07:02:16.104Z,19.43
2018-03-14T07:05:06.371Z,18.80
2018-03-14T07:07:33.980Z,19.10
2018-03-14T07:10:01.586Z,19.80
2018-03-14T07:12:29.164Z,20.40
2018-03-14T07:14:56.787Z,20.10
2018-03-14T07:17:25.147Z,18.03
2018-03-14T07:19:53.244Z,17.87
2018-03-14T07:22:21.614Z,19.17
2018-03-14T07:24:49.985Z,17.37
2018-03-14T07:27:17.561Z,18.30
2018-03-14T07:29:45.956Z,17.17
2018-03-14T07:32:13.568Z,16.80
2018-03-14T07:34:41.172Z,17.40
2018-03-14T07:37:12.246Z,16.83
2018-03-14T07:39:40.071Z,16.90
2018-03-14T07:42:08.021Z,17.80
2018-03-14T07:44:35.606Z,17.77
2018-03-14T07:47:03.356Z,17.40
2018-03-14T07:49:31.695Z,15.80
2018-03-14T07:52:00.078Z,16.77
2018-03-14T07:54:27.711Z,17.27
2018-03-14T07:56:55.280Z,16.77
2018-03-14T07:59:23.157Z,17.00
2018-03-14T08:01:52.237Z,17.33
2018-03-14T08:04:19.803Z,18.47
2018-03-14T08:06:47.410Z,18.37
2018-03-14T08:09:15.424Z,16.60
2018-03-14T08:11:42.977Z,16.90
2018-03-14T08:14:10.867Z,17.43
2018-03-14T08:16:38.441Z,16.40
2018-03-14T08:19:06.779Z,18.60
2018-03-14T08:21:34.524Z,17.67
2018-03-14T08:24:02.097Z,16.73
2018-03-14T08:26:29.662Z,18.87
2018-03-14T08:28:57.625Z,19.67
2018-03-14T08:31:25.216Z,19.00
2018-03-14T08:33:52.848Z,18.93
2018-03-14T08:36:20.474Z,19.30
2018-03-14T08:38:48.073Z,18.20
2018-03-14T08:41:15.668Z,18.40
2018-03-14T08:43:44.005Z,17.00
2018-03-14T08:46:11.882Z,18.20
2018-03-14T08:48:39.514Z,17.10
2018-03-14T08:51:07.100Z,16.70
2018-03-14T08:53:34.687Z,18.37
2018-03-14T08:56:03.038Z,18.60
2018-03-14T08:58:30.605Z,19.47
2018-03-14T09:00:58.201Z,19.30
2018-03-14T09:03:26.533Z,18.67
2018-03-14T09:05:54.720Z,19.30
2018-03-14T09:08:22.351Z,19.60
2018-03-14T09:10:49.924Z,20.10
2018-03-14T09:13:17.523Z,18.60
2018-03-14T09:15:45.859Z,18.97
2018-03-14T09:18:13.425Z,18.67
2018-03-14T09:20:41.252Z,15.37
2018-03-14T09:23:08.825Z,14.57
2018-03-14T09:25:36.508Z,13.63
2018-03-14T09:28:04.134Z,14.60
2018-03-14T09:30:31.762Z,13.77
2018-03-14T09:33:00.111Z,12.07
2018-03-14T09:35:27.701Z,11.73
2018-03-14T09:37:56.026Z,12.73
2018-03-14T09:40:24.829Z,12.73
2018-03-14T09:42:52.451Z,12.00
2018-03-14T09:45:20.109Z,10.47
2018-03-14T09:47:47.676Z,9.10
2018-03-14T09:50:15.278Z,9.17
2018-03-14T09:52:42.923Z,9.10
2018-03-14T09:55:10.526Z,8.83
2018-03-14T09:57:38.864Z,8.57
2018-03-14T10:00:06.440Z,8.33
2018-03-14T10:02:34.286Z,9.23
2018-03-14T10:05:01.930Z,8.20
2018-03-14T10:07:29.545Z,9.00
2018-03-14T10:09:57.918Z,7.20
2018-03-14T10:12:26.240Z,9.03
2018-03-14T10:14:54.097Z,7.63
2018-03-14T10:17:21.692Z,8.50
2018-03-14T10:19:49.418Z,7.80
2018-03-14T10:22:17.010Z,7.80
2018-03-14T10:24:44.971Z,6.73
2018-03-14T10:27:12.584Z,6.47
2018-03-14T10:29:40.134Z,7.00
2018-03-14T10:32:08.531Z,7.47
2018-03-14T10:34:36.837Z,6.93
2018-03-14T10:37:04.419Z,6.63
2018-03-14T10:39:32.749Z,6.87
2018-03-14T10:42:00.346Z,5.60
2018-03-14T10:44:27.923Z,7.33
2018-03-14T10:46:56.251Z,6.30
2018-03-14T10:49:24.145Z,6.93
2018-03-14T10:51:51.703Z,6.40
2018-03-14T10:54:19.273Z,6.97
2018-03-14T10:56:47.656Z,7.23
2018-03-14T10:59:16.051Z,6.63
2018-03-14T11:01:47.105Z,6.33
2018-03-14T11:04:14.699Z,6.30
2018-03-14T11:06:42.686Z,6.23
2018-03-14T11:09:11.817Z,5.97
2018-03-14T11:11:39.386Z,6.10
2018-03-14T11:14:07.726Z,5.80
2018-03-14T11:16:36.905Z,6.93
2018-03-14T11:19:04.505Z,5.57
2018-03-14T11:21:33.065Z,5.90
2018-03-14T11:24:00.688Z,5.80
2018-03-14T11:26:28.678Z,6.03
2018-03-14T11:28:56.241Z,7.37
2018-03-14T11:31:23.799Z,6.60
2018-03-14T11:33:51.401Z,7.00
2018-03-14T11:36:19.739Z,8.00
2018-03-14T11:38:47.304Z,7.33
2018-03-14T11:41:14.920Z,7.73
2018-03-14T11:43:42.498Z,8.00
2018-03-14T11:46:10.094Z,8.60
2018-03-14T11:48:38.473Z,6.47
2018-03-14T11:51:06.039Z,6.80
2018-03-14T11:53:34.381Z,6.87
2018-03-14T11:56:02.556Z,6.93
2018-03-14T11:58:30.160Z,7.20
2018-03-14T12:00:57.730Z,7.20
2018-03-14T12:03:25.605Z,8.23
2018-03-14T12:05:53.162Z,6.13
2018-03-14T12:08:20.734Z,7.97
2018-03-14T12:10:48.758Z,6.90
2018-03-14T12:13:17.143Z,8.10
2018-03-14T12:15:45.458Z,6.80
2018-03-14T12:18:13.351Z,7.70
2018-03-14T12:20:41.698Z,7.77
2018-03-14T12:23:09.318Z,7.57
2018-03-14T12:25:37.987Z,8.17
2018-03-14T12:28:07.065Z,7.70
2018-03-14T12:30:34.630Z,8.10
2018-03-14T12:33:02.477Z,6.10
2018-03-14T12:35:30.037Z,6.47
2018-03-14T12:37:57.589Z,7.60
2018-03-14T12:40:25.464Z,6.60
2018-03-14T12:42:53.024Z,7.53
2018-03-14T12:45:21.019Z,7.43
2018-03-14T12:47:48.628Z,6.67
2018-03-14T12:50:16.198Z,7.33
2018-03-14T12:52:43.797Z,6.87
2018-03-14T12:55:11.549Z,6.70
2018-03-14T12:57:39.884Z,6.70
2018-03-14T13:00:07.453Z,6.20
2018-03-14T13:02:35.330Z,5.93
2018-03-14T13:05:02.900Z,6.83
2018-03-14T13:07:30.495Z,7.00
2018-03-14T13:09:58.871Z,6.70
2018-03-14T13:12:27.274Z,6.10
2018-03-14T13:14:54.850Z,6.90
2018-03-14T13:17:22.437Z,6.00
2018-03-14T13:19:50.801Z,6.63
2018-03-14T13:22:18.372Z,7.00
2018-03-14T13:24:46.345Z,6.00
2018-03-14T13:27:13.935Z,6.57
2018-03-14T13:29:42.290Z,6.70
2018-03-14T13:32:11.413Z,6.90
2018-03-14T13:34:39.737Z,6.10
2018-03-14T13:37:07.602Z,6.87
2018-03-14T13:39:36.008Z,7.30
2018-03-14T13:42:04.345Z,6.60
2018-03-14T13:44:31.915Z,6.03
2018-03-14T13:46:59.598Z,5.80
2018-03-14T13:49:27.209Z,5.70
2018-03-14T13:51:54.803Z,5.43
2018-03-14T13:54:22.399Z,5.90
2018-03-14T13:56:50.748Z,5.90
2018-03-14T13:59:18.597Z,7.60
2018-03-14T14:01:46.299Z,7.83
2018-03-14T14:04:14.638Z,6.50
2018-03-14T14:06:42.415Z,6.27
2018-03-14T14:09:09.981Z,5.20
2018-03-14T14:11:39.043Z,6.13
2018-03-14T14:14:06.798Z,5.43
2018-03-14T14:16:34.878Z,5.50
2018-03-14T14:19:02.446Z,5.10
2018-03-14T14:21:30.110Z,4.53
2018-03-14T14:23:57.717Z,4.27
2018-03-14T14:26:25.361Z,3.80
2018-03-14T14:28:53.004Z,3.83
2018-03-14T14:31:20.573Z,4.30
2018-03-14T14:33:48.147Z,4.67
2018-03-14T14:36:16.911Z,4.70
2018-03-14T14:38:45.265Z,4.23
2018-03-14T14:41:12.825Z,3.90
2018-03-14T14:43:40.762Z,4.77
2018-03-14T14:46:08.378Z,5.00
2018-03-14T14:48:36.098Z,5.30
2018-03-14T14:51:03.743Z,4.83
2018-03-14T14:53:31.347Z,4.80
2018-03-14T14:55:58.906Z,4.63
2018-03-14T14:58:26.740Z,4.30
2018-03-14T15:00:54.300Z,3.90
2018-03-14T15:03:21.914Z,4.47
2018-03-14T15:05:49.471Z,4.20
2018-03-14T15:08:17.799Z,3.83
2018-03-14T15:10:45.358Z,5.10
2018-03-14T15:13:12.966Z,4.07
2018-03-14T15:15:40.533Z,4.47
2018-03-14T15:18:08.917Z,4.30
2018-03-14T15:20:37.563Z,4.40
2018-03-14T15:23:05.117Z,5.50
2018-03-14T15:25:32.692Z,5.33
2018-03-14T15:28:00.297Z,5.33
2018-03-14T15:30:28.220Z,5.10
2018-03-14T15:32:55.815Z,4.87
2018-03-14T15:35:23.387Z,5.37
2018-03-14T15:37:50.998Z,4.80
2018-03-14T15:40:18.553Z,4.67
2018-03-14T15:42:46.123Z,5.20
2018-03-14T15:45:13.735Z,4.73
2018-03-14T15:47:41.303Z,5.60
2018-03-14T15:50:08.882Z,5.73
2018-03-14T15:52:36.517Z,6.50
2018-03-14T15:55:04.111Z,7.37
2018-03-14T15:57:31.677Z,5.63
2018-03-14T15:59:59.291Z,6.37
2018-03-14T16:02:26.868Z,7.77
2018-03-14T16:04:54.430Z,6.20
2018-03-14T16:07:22.607Z,6.97
2018-03-14T16:09:50.219Z,6.00
2018-03-14T16:12:17.828Z,5.57
2018-03-14T16:14:45.393Z,5.90
2018-03-14T16:17:12.996Z,5.90
2018-03-14T16:19:40.559Z,6.90
2018-03-14T16:22:08.133Z,6.47
2018-03-14T16:24:35.768Z,6.43
2018-03-14T16:27:04.129Z,9.23
2018-03-14T16:29:33.073Z,6.40
2018-03-14T16:32:00.679Z,5.73
2018-03-14T16:34:29.012Z,5.70
2018-03-14T16:36:56.604Z,6.40
2018-03-14T16:39:24.756Z,6.00
2018-03-14T16:41:52.348Z,6.67
2018-03-14T16:44:19.951Z,7.23
2018-03-14T16:46:47.598Z,6.33
2018-03-14T16:49:15.411Z,6.67
2018-03-14T16:51:43.031Z,7.00
2018-03-14T16:54:10.617Z,6.93
2018-03-14T16:56:38.206Z,6.07
2018-03-14T16:59:05.858Z,8.30
2018-03-14T17:01:33.596Z,7.33
2018-03-14T17:04:01.218Z,8.00
2018-03-14T17:06:29.955Z,8.60
2018-03-14T17:08:57.533Z,8.83
2018-03-14T17:11:25.994Z,9.07
2018-03-14T17:13:53.757Z,8.87
2018-03-14T17:16:21.353Z,9.80
2018-03-14T17:18:49.740Z,10.10
2018-03-14T17:21:17.421Z,11.47
2018-03-14T17:23:45.038Z,11.90
2018-03-14T17:26:12.729Z,22.23
2018-03-14T17:28:40.333Z,36.13
2018-03-14T17:31:07.916Z,38.03
2018-03-14T17:33:35.508Z,19.53
2018-03-14T17:36:03.122Z,18.17
2018-03-14T17:38:30.726Z,18.33
2018-03-14T17:40:59.075Z,19.83
2018-03-14T17:43:27.741Z,16.70
2018-03-14T17:45:55.322Z,18.13
2018-03-14T17:48:22.892Z,17.33
2018-03-14T17:50:51.526Z,17.13
2018-03-14T17:53:19.101Z,18.10
2018-03-14T17:55:46.721Z,20.57
2018-03-14T17:58:14.350Z,17.13
2018-03-14T18:00:42.704Z,17.97
2018-03-14T18:03:10.296Z,19.27
2018-03-14T18:05:40.160Z,16.00
2018-03-14T18:08:07.748Z,16.87
2018-03-14T18:10:36.148Z,17.50
2018-03-14T18:13:04.757Z,16.83
2018-03-14T18:15:32.325Z,17.60
2018-03-14T18:17:59.917Z,17.60
2018-03-14T18:20:27.783Z,15.60
2018-03-14T18:22:56.320Z,16.53
2018-03-14T18:25:24.132Z,16.07
2018-03-14T18:27:51.733Z,16.23
2018-03-14T18:30:19.338Z,15.63
2018-03-14T18:32:46.925Z,15.87
2018-03-14T18:35:15.759Z,15.67
2018-03-14T18:37:43.465Z,14.47
2018-03-14T18:40:11.013Z,13.87
2018-03-14T18:42:38.570Z,14.33
2018-03-14T18:45:06.189Z,14.80
2018-03-14T18:47:33.770Z,15.30
2018-03-14T18:50:02.619Z,14.80
2018-03-14T18:52:30.265Z,14.77
2018-03-14T18:54:58.684Z,15.50
2018-03-14T18:57:26.383Z,15.43
2018-03-14T18:59:53.951Z,16.00
2018-03-14T19:02:22.326Z,15.93
2018-03-14T19:04:49.899Z,15.23
2018-03-14T19:07:18.572Z,13.50
2018-03-14T19:09:46.152Z,13.80
2018-03-14T19:12:14.218Z,13.10
2018-03-14T19:14:42.677Z,12.47
2018-03-14T19:17:11.044Z,13.10
2018-03-14T19:19:38.612Z,13.43
2018-03-14T19:22:06.193Z,12.90
2018-03-14T19:24:34.561Z,12.80
2018-03-14T19:27:02.907Z,11.50
2018-03-14T19:29:30.480Z,12.93
2018-03-14T19:31:58.095Z,12.13
2018-03-14T19:34:25.679Z,12.17
2018-03-14T19:36:53.251Z,11.23
2018-03-14T19:39:21.115Z,11.57
2018-03-14T19:41:48.694Z,11.90
2018-03-14T19:44:17.070Z,12.33
2018-03-14T19:46:46.197Z,10.90
2018-03-14T19:49:13.795Z,10.70
2018-03-14T19:51:41.390Z,12.27
2018-03-14T19:54:09.016Z,12.87
2018-03-14T19:56:36.578Z,11.77
2018-03-14T19:59:04.674Z,11.60
2018-03-14T20:01:33.007Z,10.90
2018-03-14T20:04:00.587Z,11.33
2018-03-14T20:06:28.551Z,11.70
2018-03-14T20:08:56.211Z,11.10
2018-03-14T20:11:24.017Z,11.80
2018-03-14T20:13:52.347Z,11.33
2018-03-14T20:16:19.927Z,11.30
2018-03-14T20:18:47.904Z,11.03
2018-03-14T20:21:15.475Z,10.40
2018-03-14T20:23:43.817Z,11.10
2018-03-14T20:26:11.700Z,10.90
2018-03-14T20:28:39.272Z,11.00
2018-03-14T20:31:06.858Z,10.03
2018-03-14T20:33:34.486Z,11.33
2018-03-14T20:36:02.061Z,9.47
2018-03-14T20:38:30.416Z,9.33
2018-03-14T20:40:58.722Z,10.20
2018-03-14T20:43:27.050Z,9.43
2018-03-14T20:45:54.635Z,9.97
2018-03-14T20:48:23.314Z,9.37
2018-03-14T20:50:50.893Z,9.70
2018-03-14T20:53:19.230Z,9.20
2018-03-14T20:55:46.897Z,9.60
2018-03-14T20:58:14.508Z,10.10
2018-03-14T21:00:42.862Z,9.60
2018-03-14T21:03:11.268Z,10.60
2018-03-14T21:05:38.847Z,10.87
2018-03-14T21:08:08.997Z,11.13
2018-03-14T21:10:36.587Z,10.20
2018-03-14T21:13:05.233Z,10.10
2018-03-14T21:15:32.975Z,10.07
2018-03-14T21:18:00.618Z,11.20
2018-03-14T21:20:28.228Z,11.40
2018-03-14T21:22:55.961Z,9.90
2018-03-14T21:25:23.535Z,10.20
2018-03-14T21:27:51.413Z,11.70
2018-03-14T21:30:18.991Z,10.90
2018-03-14T21:32:47.330Z,11.40
2018-03-14T21:35:14.937Z,10.73
2018-03-14T21:37:43.297Z,11.37
2018-03-14T21:40:10.916Z,11.57
2018-03-14T21:42:38.485Z,11.73
2018-03-14T21:45:06.472Z,11.30
2018-03-14T21:47:34.029Z,11.00
2018-03-14T21:50:01.599Z,11.27
2018-03-14T21:52:29.211Z,10.27
2018-03-14T21:54:58.273Z,11.87
2018-03-14T21:57:26.720Z,10.53
2018-03-14T21:59:54.319Z,10.40
2018-03-14T22:02:22.664Z,11.10
2018-03-14T22:04:50.252Z,11.00
2018-03-14T22:07:18.908Z,10.17
2018-03-14T22:09:46.472Z,10.47
2018-03-14T22:12:14.147Z,10.07
2018-03-14T22:14:41.689Z,10.90
2018-03-14T22:17:09.291Z,11.17
2018-03-14T22:19:37.194Z,10.60
2018-03-14T22:22:04.760Z,9.97
2018-03-14T22:24:32.325Z,10.93
2018-03-14T22:26:59.940Z,10.83
2018-03-14T22:29:27.503Z,9.67
2018-03-14T22:31:56.973Z,10.10
2018-03-14T22:34:25.198Z,10.23
2018-03-14T22:36:52.755Z,10.70
2018-03-14T22:39:20.638Z,10.27
2018-03-14T22:41:48.222Z,10.77
2018-03-14T22:44:15.812Z,11.60
2018-03-14T22:46:43.661Z,10.23
2018-03-14T22:49:11.343Z,10.93
2018-03-14T22:51:38.903Z,9.73
2018-03-14T22:54:06.915Z,10.27
2018-03-14T22:56:34.562Z,10.60
2018-03-14T22:59:02.149Z,11.07
2018-03-14T23:01:29.829Z,11.80
2018-03-14T23:03:58.168Z,11.87
2018-03-14T23:06:25.731Z,11.40
2018-03-14T23:08:53.417Z,11.37
2018-03-14T23:11:21.758Z,11.70
2018-03-14T23:13:49.336Z,10.93
2018-03-14T23:16:19.149Z,11.43
2018-03-14T23:18:47.527Z,11.10
2018-03-14T23:21:17.302Z,10.20
2018-03-14T23:23:44.897Z,10.87
2018-03-14T23:26:12.484Z,10.20
2018-03-14T23:28:40.821Z,11.93
2018-03-14T23:31:08.412Z,10.77
2018-03-14T23:33:35.986Z,11.17
2018-03-14T23:36:04.315Z,10.30
2018-03-14T23:38:32.301Z,11.17
2018-03-14T23:41:01.534Z,11.13
2018-03-14T23:43:29.276Z,10.80
2018-03-14T23:45:56.869Z,10.87
2018-03-14T23:48:24.429Z,10.97
2018-03-14T23:50:54.799Z,10.60
2018-03-14T23:53:23.267Z,10.57
2018-03-14T23:55:50.882Z,10.57
2018-03-14T23:58:18.501Z,10.00
